METAR AND TAF INFORMATION
METAR FOR LKTB
ADDS - METARS form results

(1727 UTC 18 January 2018)
Data provider http://aviationweather.gov/adds/metars/
 
METAR text: LKTB 181700Z 19015KT 9999 -RA NSC 03/M00 Q0997 R27/29//95 NOSIG
Conditions at: LKTB (BRNO/TURANY , CZ) observed 1700 UTC 18 January 2018
Temperature: 3.0°C (37°F)
Dewpoint: 0.0°C (32°F) [RH = 81%]
Pressure (altimeter): 29.44 inches Hg (997.0 mb)
Winds: from the S (190 degrees) at 17 MPH (15 knots; 7.8 m/s)
Visibility: 6 or more miles (10+ km)
Ceiling: at least 12,000 feet AGL
Clouds: sky clear below 12,000 feet AGL
Weather: -RA  (light rain)

METAR text: LKTB 181657Z 19015KT 9999 -RA NSC 03/M00 Q0997 R27/29//95 RMK REG QNH 0987
Conditions at: LKTB (BRNO/TURANY , CZ) observed 1657 UTC 18 January 2018
Temperature: 3.0°C (37°F)
Dewpoint: 0.0°C (32°F) [RH = 81%]
Pressure (altimeter): 29.44 inches Hg (997.0 mb)
Winds: from the S (190 degrees) at 17 MPH (15 knots; 7.8 m/s)
Visibility: 6 or more miles (10+ km)
Ceiling: at least 12,000 feet AGL
Clouds: sky clear below 12,000 feet AGL
Weather: -RA  (light rain)

METAR text: LKTB 181630Z 17018KT 9999 SCT044 02/M00 Q0997 R27/29//95 NOSIG
Conditions at: LKTB (BRNO/TURANY , CZ) observed 1630 UTC 18 January 2018
Temperature: 2.0°C (36°F)
Dewpoint: 0.0°C (32°F) [RH = 87%]
Pressure (altimeter): 29.44 inches Hg (997.0 mb)
Winds: from the S (170 degrees) at 21 MPH (18 knots; 9.4 m/s)
Visibility: 6 or more miles (10+ km)
Ceiling: at least 12,000 feet AGL
Clouds: scattered clouds at 4400 feet AGL
Weather: no significant weather observed at this time

Forecast for: LKTB (BRNO/TURANY , CZ)
Text: TAF LKTB 181700Z 1818/2000 20010KT 9999 SCT020
Forecast period: 1800 UTC 18 January 2018 to 0200 UTC 19 January 2018
Forecast type: FROM: standard forecast or significant change
Winds: from the SSW (200 degrees) at 12 MPH (10 knots; 5.2 m/s)
Visibility: 6 or more miles (10+ km)
Clouds: scattered clouds at 2000 feet AGL
Weather: no significant weather forecast for this period
Text: TEMPO 1818/1902 27016G26KT
Forecast period: 1800 UTC 18 January 2018 to 0200 UTC 19 January 2018
Forecast type: TEMPORARY: The following changes expected for less than half the time period
Winds: from the W (270 degrees) at 18 MPH (16 knots; 8.3 m/s)
gusting to 30 MPH (26 knots; 13.5 m/s)
Weather: no significant weather forecast for this period
Text: BECMG 1902/1904 27006KT
Forecast period: 0200 UTC 19 January 2018 to 0000 UTC 20 January 2018
Forecast type: BECOMING: Conditions expected to become as follows by 0400 UTC 19 January 2018
Winds: from the W (270 degrees) at 7 MPH (6 knots; 3.1 m/s)
Visibility: 6 or more miles (10+ km)
Clouds: scattered clouds at 2000 feet AGL
Weather: no significant weather forecast for this period
Text: TEMPO 1818/1918 6000 SHSNRA BKN009
Forecast period: 1800 UTC 18 January 2018 to 1800 UTC 19 January 2018
Forecast type: TEMPORARY: The following changes expected for less than half the time period
Visibility: 4 miles (6 km)
Ceiling: 900 feet AGL
Clouds: broken clouds at 900 feet AGL
Weather: SHSN SHRA  (snow showers, rain showers)

 AIRPORT MAP

 RUNWAY INFORMATION
Runway 10 Runway length 8694 ft Runway width 197 ft
Runway elevation 764 ft Runway displaced threshold 0 ft Runway heading 97
Runway 28 Runway length 8694 ft Runway width 197 ft
Runway elevation 771 ft Runway displaced threshold 0 ft Runway heading 277

 AIRPORT FREQUENCIES
Type APP Name Brno Radar Frequency 120.55 MHZ
Type ATIS Name Turany ATI Frequency 131.1 MHZ
Type GND Name Turany Gro Frequency 125.425 MHZ
Type TWR Name Turany Tow Frequency 119.6 MHZ

 AIRPORT NEAR NAVIGATION AIDS
Type VOR-DME Name Brno Frequency 113900 KHZ
Type NDB Name Brno Frequency 368 KHZ



v2.6.1